sensor_id;sensor_type;location;lat;lon;timestamp;P1;durP1;ratioP1;P2;durP2;ratioP2
4290;SDS011;2159;50.906;7.152;2023-04-06T00:00:52;6.93;;;6.13;;
4290;SDS011;2159;50.906;7.152;2023-04-06T00:03:19;10.37;;;6.97;;
4290;SDS011;2159;50.906;7.152;2023-04-06T00:05:47;8.50;;;6.90;;
4290;SDS011;2159;50.906;7.152;2023-04-06T00:08:15;8.70;;;6.50;;
4290;SDS011;2159;50.906;7.152;2023-04-06T00:10:43;11.50;;;7.00;;
4290;SDS011;2159;50.906;7.152;2023-04-06T00:13:11;9.10;;;6.63;;
4290;SDS011;2159;50.906;7.152;2023-04-06T00:15:40;10.03;;;6.83;;
4290;SDS011;2159;50.906;7.152;2023-04-06T00:18:07;8.43;;;6.27;;
4290;SDS011;2159;50.906;7.152;2023-04-06T00:20:35;8.13;;;6.80;;
4290;SDS011;2159;50.906;7.152;2023-04-06T00:23:02;9.67;;;6.37;;
4290;SDS011;2159;50.906;7.152;2023-04-06T00:25:30;7.43;;;6.40;;
4290;SDS011;2159;50.906;7.152;2023-04-06T00:27:57;8.20;;;6.40;;
4290;SDS011;2159;50.906;7.152;2023-04-06T00:30:25;8.20;;;6.23;;
4290;SDS011;2159;50.906;7.152;2023-04-06T00:32:54;15.50;;;6.80;;
4290;SDS011;2159;50.906;7.152;2023-04-06T00:35:22;8.93;;;6.40;;
4290;SDS011;2159;50.906;7.152;2023-04-06T00:37:49;12.00;;;6.70;;
4290;SDS011;2159;50.906;7.152;2023-04-06T00:40:17;11.77;;;6.57;;
4290;SDS011;2159;50.906;7.152;2023-04-06T00:42:44;7.53;;;6.17;;
4290;SDS011;2159;50.906;7.152;2023-04-06T00:45:12;13.40;;;6.70;;
4290;SDS011;2159;50.906;7.152;2023-04-06T00:47:39;9.17;;;6.53;;
4290;SDS011;2159;50.906;7.152;2023-04-06T00:50:09;9.83;;;6.37;;
4290;SDS011;2159;50.906;7.152;2023-04-06T00:52:36;12.60;;;6.33;;
4290;SDS011;2159;50.906;7.152;2023-04-06T00:55:05;8.33;;;6.60;;
4290;SDS011;2159;50.906;7.152;2023-04-06T00:57:32;9.03;;;6.47;;
4290;SDS011;2159;50.906;7.152;2023-04-06T01:00:00;7.10;;;6.10;;
4290;SDS011;2159;50.906;7.152;2023-04-06T01:02:28;9.47;;;6.90;;
4290;SDS011;2159;50.906;7.152;2023-04-06T01:04:55;8.17;;;6.30;;
4290;SDS011;2159;50.906;7.152;2023-04-06T01:07:24;7.00;;;6.30;;
4290;SDS011;2159;50.906;7.152;2023-04-06T01:09:52;9.37;;;6.10;;
4290;SDS011;2159;50.906;7.152;2023-04-06T01:12:20;13.07;;;6.30;;
4290;SDS011;2159;50.906;7.152;2023-04-06T01:14:47;9.90;;;5.90;;
4290;SDS011;2159;50.906;7.152;2023-04-06T01:17:15;6.80;;;6.00;;
4290;SDS011;2159;50.906;7.152;2023-04-06T01:19:43;9.27;;;6.30;;
4290;SDS011;2159;50.906;7.152;2023-04-06T01:22:14;7.20;;;5.80;;
4290;SDS011;2159;50.906;7.152;2023-04-06T01:24:42;9.33;;;5.87;;
4290;SDS011;2159;50.906;7.152;2023-04-06T01:27:10;8.30;;;5.90;;
4290;SDS011;2159;50.906;7.152;2023-04-06T01:29:37;7.10;;;5.43;;
4290;SDS011;2159;50.906;7.152;2023-04-06T01:32:07;6.57;;;5.70;;
4290;SDS011;2159;50.906;7.152;2023-04-06T01:34:35;7.00;;;5.40;;
4290;SDS011;2159;50.906;7.152;2023-04-06T01:37:02;6.70;;;5.30;;
4290;SDS011;2159;50.906;7.152;2023-04-06T01:39:32;7.40;;;5.70;;
4290;SDS011;2159;50.906;7.152;2023-04-06T01:41:59;6.23;;;5.33;;
4290;SDS011;2159;50.906;7.152;2023-04-06T01:44:27;7.10;;;5.60;;
4290;SDS011;2159;50.906;7.152;2023-04-06T01:46:56;6.07;;;5.20;;
4290;SDS011;2159;50.906;7.152;2023-04-06T01:49:24;6.00;;;5.37;;
4290;SDS011;2159;50.906;7.152;2023-04-06T01:51:51;5.97;;;5.40;;
4290;SDS011;2159;50.906;7.152;2023-04-06T01:54:20;6.20;;;5.13;;
4290;SDS011;2159;50.906;7.152;2023-04-06T01:56:49;5.97;;;5.37;;
4290;SDS011;2159;50.906;7.152;2023-04-06T01:59:18;6.33;;;5.50;;
4290;SDS011;2159;50.906;7.152;2023-04-06T02:01:46;7.70;;;5.27;;
4290;SDS011;2159;50.906;7.152;2023-04-06T02:04:14;6.13;;;5.30;;
4290;SDS011;2159;50.906;7.152;2023-04-06T02:06:41;6.00;;;4.83;;
4290;SDS011;2159;50.906;7.152;2023-04-06T02:09:09;5.83;;;5.23;;
4290;SDS011;2159;50.906;7.152;2023-04-06T02:11:37;6.90;;;4.97;;
4290;SDS011;2159;50.906;7.152;2023-04-06T02:14:05;5.83;;;4.90;;
4290;SDS011;2159;50.906;7.152;2023-04-06T02:16:33;6.57;;;5.37;;
4290;SDS011;2159;50.906;7.152;2023-04-06T02:19:01;5.97;;;4.67;;
4290;SDS011;2159;50.906;7.152;2023-04-06T02:21:28;6.00;;;5.17;;
4290;SDS011;2159;50.906;7.152;2023-04-06T02:23:56;6.47;;;5.27;;
4290;SDS011;2159;50.906;7.152;2023-04-06T02:26:23;8.83;;;5.50;;
4290;SDS011;2159;50.906;7.152;2023-04-06T02:28:51;6.00;;;5.40;;
4290;SDS011;2159;50.906;7.152;2023-04-06T02:31:19;9.27;;;5.60;;
4290;SDS011;2159;50.906;7.152;2023-04-06T02:33:47;6.47;;;5.37;;
4290;SDS011;2159;50.906;7.152;2023-04-06T02:36:15;6.70;;;5.37;;
4290;SDS011;2159;50.906;7.152;2023-04-06T02:38:42;6.07;;;5.20;;
4290;SDS011;2159;50.906;7.152;2023-04-06T02:41:10;5.93;;;5.00;;
4290;SDS011;2159;50.906;7.152;2023-04-06T02:43:37;5.67;;;5.07;;
4290;SDS011;2159;50.906;7.152;2023-04-06T02:46:05;5.63;;;5.10;;
4290;SDS011;2159;50.906;7.152;2023-04-06T02:48:34;7.37;;;5.60;;
4290;SDS011;2159;50.906;7.152;2023-04-06T02:51:02;11.43;;;5.40;;
4290;SDS011;2159;50.906;7.152;2023-04-06T02:53:30;9.63;;;5.23;;
4290;SDS011;2159;50.906;7.152;2023-04-06T02:55:57;6.30;;;5.40;;
4290;SDS011;2159;50.906;7.152;2023-04-06T02:58:25;6.17;;;5.40;;
4290;SDS011;2159;50.906;7.152;2023-04-06T03:00:52;8.10;;;5.73;;
4290;SDS011;2159;50.906;7.152;2023-04-06T03:03:20;8.53;;;5.30;;
4290;SDS011;2159;50.906;7.152;2023-04-06T03:05:49;6.37;;;5.17;;
4290;SDS011;2159;50.906;7.152;2023-04-06T03:08:16;7.90;;;5.90;;
4290;SDS011;2159;50.906;7.152;2023-04-06T03:10:44;6.70;;;5.30;;
4290;SDS011;2159;50.906;7.152;2023-04-06T03:13:11;8.60;;;5.17;;
4290;SDS011;2159;50.906;7.152;2023-04-06T03:15:39;7.03;;;5.60;;
4290;SDS011;2159;50.906;7.152;2023-04-06T03:18:07;8.10;;;5.40;;
4290;SDS011;2159;50.906;7.152;2023-04-06T03:20:34;7.30;;;5.00;;
4290;SDS011;2159;50.906;7.152;2023-04-06T03:23:03;6.37;;;5.57;;
4290;SDS011;2159;50.906;7.152;2023-04-06T03:25:31;10.37;;;5.77;;
4290;SDS011;2159;50.906;7.152;2023-04-06T03:27:58;6.20;;;5.27;;
4290;SDS011;2159;50.906;7.152;2023-04-06T03:30:26;7.83;;;5.60;;
4290;SDS011;2159;50.906;7.152;2023-04-06T03:32:53;6.97;;;5.30;;
4290;SDS011;2159;50.906;7.152;2023-04-06T03:35:21;5.67;;;4.90;;
4290;SDS011;2159;50.906;7.152;2023-04-06T03:37:49;6.70;;;5.53;;
4290;SDS011;2159;50.906;7.152;2023-04-06T03:40:18;8.37;;;5.80;;
4290;SDS011;2159;50.906;7.152;2023-04-06T03:42:45;6.30;;;5.33;;
4290;SDS011;2159;50.906;7.152;2023-04-06T03:45:13;7.77;;;5.60;;
4290;SDS011;2159;50.906;7.152;2023-04-06T03:47:41;9.40;;;5.70;;
4290;SDS011;2159;50.906;7.152;2023-04-06T03:50:08;5.73;;;5.10;;
4290;SDS011;2159;50.906;7.152;2023-04-06T03:52:36;5.97;;;5.10;;
4290;SDS011;2159;50.906;7.152;2023-04-06T03:55:04;6.30;;;5.10;;
4290;SDS011;2159;50.906;7.152;2023-04-06T03:57:33;6.40;;;5.70;;
4290;SDS011;2159;50.906;7.152;2023-04-06T04:00:01;10.10;;;5.40;;
4290;SDS011;2159;50.906;7.152;2023-04-06T04:02:29;7.90;;;4.87;;
4290;SDS011;2159;50.906;7.152;2023-04-06T04:04:56;6.20;;;5.20;;
4290;SDS011;2159;50.906;7.152;2023-04-06T04:07:24;5.50;;;4.70;;
4290;SDS011;2159;50.906;7.152;2023-04-06T04:09:52;5.90;;;5.13;;
4290;SDS011;2159;50.906;7.152;2023-04-06T04:12:19;6.00;;;5.37;;
4290;SDS011;2159;50.906;7.152;2023-04-06T04:14:48;6.73;;;5.00;;
4290;SDS011;2159;50.906;7.152;2023-04-06T04:17:16;8.03;;;5.60;;
4290;SDS011;2159;50.906;7.152;2023-04-06T04:19:43;6.50;;;5.40;;
4290;SDS011;2159;50.906;7.152;2023-04-06T04:22:11;6.20;;;5.57;;
4290;SDS011;2159;50.906;7.152;2023-04-06T04:24:38;7.97;;;5.37;;
4290;SDS011;2159;50.906;7.152;2023-04-06T04:27:06;5.90;;;5.30;;
4290;SDS011;2159;50.906;7.152;2023-04-06T04:29:34;7.20;;;4.90;;
4290;SDS011;2159;50.906;7.152;2023-04-06T04:32:03;6.83;;;5.40;;
4290;SDS011;2159;50.906;7.152;2023-04-06T04:34:30;11.63;;;5.27;;
4290;SDS011;2159;50.906;7.152;2023-04-06T04:36:59;6.00;;;5.40;;
4290;SDS011;2159;50.906;7.152;2023-04-06T04:39:26;12.20;;;5.87;;
4290;SDS011;2159;50.906;7.152;2023-04-06T04:41:54;7.20;;;5.70;;
4290;SDS011;2159;50.906;7.152;2023-04-06T04:44:21;9.27;;;6.00;;
4290;SDS011;2159;50.906;7.152;2023-04-06T04:46:49;7.40;;;5.60;;
4290;SDS011;2159;50.906;7.152;2023-04-06T04:49:18;5.70;;;5.10;;
4290;SDS011;2159;50.906;7.152;2023-04-06T04:51:45;6.80;;;5.57;;
4290;SDS011;2159;50.906;7.152;2023-04-06T04:54:13;8.07;;;5.87;;
4290;SDS011;2159;50.906;7.152;2023-04-06T04:56:40;7.27;;;5.47;;
4290;SDS011;2159;50.906;7.152;2023-04-06T04:59:08;7.37;;;5.00;;
4290;SDS011;2159;50.906;7.152;2023-04-06T05:01:36;6.73;;;5.90;;
4290;SDS011;2159;50.906;7.152;2023-04-06T05:04:21;8.33;;;5.23;;
4290;SDS011;2159;50.906;7.152;2023-04-06T05:06:49;8.70;;;6.00;;
4290;SDS011;2159;50.906;7.152;2023-04-06T05:09:16;6.27;;;5.47;;
4290;SDS011;2159;50.906;7.152;2023-04-06T05:11:44;5.93;;;5.27;;
4290;SDS011;2159;50.906;7.152;2023-04-06T05:14:12;7.60;;;6.00;;
4290;SDS011;2159;50.906;7.152;2023-04-06T05:16:39;9.13;;;5.33;;
4290;SDS011;2159;50.906;7.152;2023-04-06T05:19:07;6.90;;;5.60;;
4290;SDS011;2159;50.906;7.152;2023-04-06T05:21:36;8.20;;;5.80;;
4290;SDS011;2159;50.906;7.152;2023-04-06T05:24:04;6.33;;;5.60;;
4290;SDS011;2159;50.906;7.152;2023-04-06T05:26:31;8.87;;;5.53;;
4290;SDS011;2159;50.906;7.152;2023-04-06T05:28:59;7.43;;;5.67;;
4290;SDS011;2159;50.906;7.152;2023-04-06T05:31:27;10.37;;;5.97;;
4290;SDS011;2159;50.906;7.152;2023-04-06T05:33:54;12.37;;;5.77;;
4290;SDS011;2159;50.906;7.152;2023-04-06T05:36:22;8.20;;;5.50;;
4290;SDS011;2159;50.906;7.152;2023-04-06T05:38:52;13.27;;;6.40;;
4290;SDS011;2159;50.906;7.152;2023-04-06T05:41:21;7.17;;;5.60;;
4290;SDS011;2159;50.906;7.152;2023-04-06T05:43:48;7.40;;;5.60;;
4290;SDS011;2159;50.906;7.152;2023-04-06T05:46:16;6.97;;;5.40;;
4290;SDS011;2159;50.906;7.152;2023-04-06T05:48:43;6.60;;;5.50;;
4290;SDS011;2159;50.906;7.152;2023-04-06T05:51:11;7.67;;;6.10;;
4290;SDS011;2159;50.906;7.152;2023-04-06T05:53:39;6.13;;;5.43;;
4290;SDS011;2159;50.906;7.152;2023-04-06T05:56:08;8.63;;;5.67;;
4290;SDS011;2159;50.906;7.152;2023-04-06T05:58:35;6.67;;;5.97;;
4290;SDS011;2159;50.906;7.152;2023-04-06T06:01:03;9.83;;;6.20;;
4290;SDS011;2159;50.906;7.152;2023-04-06T06:03:31;7.33;;;5.70;;
4290;SDS011;2159;50.906;7.152;2023-04-06T06:06:01;6.80;;;5.80;;
4290;SDS011;2159;50.906;7.152;2023-04-06T06:08:30;7.13;;;5.77;;
4290;SDS011;2159;50.906;7.152;2023-04-06T06:10:58;6.90;;;5.77;;
4290;SDS011;2159;50.906;7.152;2023-04-06T06:13:27;6.53;;;5.10;;
4290;SDS011;2159;50.906;7.152;2023-04-06T06:15:55;7.33;;;5.93;;
4290;SDS011;2159;50.906;7.152;2023-04-06T06:18:22;12.87;;;7.00;;
4290;SDS011;2159;50.906;7.152;2023-04-06T06:20:50;15.90;;;9.73;;
4290;SDS011;2159;50.906;7.152;2023-04-06T06:23:18;10.93;;;7.20;;
4290;SDS011;2159;50.906;7.152;2023-04-06T06:25:45;8.27;;;6.43;;
4290;SDS011;2159;50.906;7.152;2023-04-06T06:28:13;7.30;;;5.87;;
4290;SDS011;2159;50.906;7.152;2023-04-06T06:30:42;8.13;;;6.30;;
4290;SDS011;2159;50.906;7.152;2023-04-06T06:33:10;8.70;;;6.33;;
4290;SDS011;2159;50.906;7.152;2023-04-06T06:35:37;9.77;;;6.30;;
4290;SDS011;2159;50.906;7.152;2023-04-06T06:38:05;8.00;;;6.10;;
4290;SDS011;2159;50.906;7.152;2023-04-06T06:40:33;9.37;;;6.57;;
4290;SDS011;2159;50.906;7.152;2023-04-06T06:43:00;10.10;;;6.53;;
4290;SDS011;2159;50.906;7.152;2023-04-06T06:45:28;9.33;;;6.40;;
4290;SDS011;2159;50.906;7.152;2023-04-06T06:47:58;8.03;;;6.37;;
4290;SDS011;2159;50.906;7.152;2023-04-06T06:50:25;7.20;;;5.93;;
4290;SDS011;2159;50.906;7.152;2023-04-06T06:52:53;8.73;;;5.83;;
4290;SDS011;2159;50.906;7.152;2023-04-06T06:55:21;10.87;;;6.00;;
4290;SDS011;2159;50.906;7.152;2023-04-06T06:57:48;9.97;;;6.23;;
4290;SDS011;2159;50.906;7.152;2023-04-06T07:00:16;8.50;;;5.60;;
4290;SDS011;2159;50.906;7.152;2023-04-06T07:02:43;9.50;;;6.30;;
4290;SDS011;2159;50.906;7.152;2023-04-06T07:05:13;6.77;;;5.40;;
4290;SDS011;2159;50.906;7.152;2023-04-06T07:07:53;9.20;;;6.47;;
4290;SDS011;2159;50.906;7.152;2023-04-06T07:10:20;8.53;;;6.07;;
4290;SDS011;2159;50.906;7.152;2023-04-06T07:12:48;7.73;;;6.10;;
4290;SDS011;2159;50.906;7.152;2023-04-06T07:15:16;11.90;;;6.00;;
4290;SDS011;2159;50.906;7.152;2023-04-06T07:17:43;9.53;;;6.47;;
4290;SDS011;2159;50.906;7.152;2023-04-06T07:20:13;7.60;;;6.07;;
4290;SDS011;2159;50.906;7.152;2023-04-06T07:22:42;7.43;;;5.53;;
4290;SDS011;2159;50.906;7.152;2023-04-06T07:25:10;8.20;;;6.03;;
4290;SDS011;2159;50.906;7.152;2023-04-06T07:27:38;7.97;;;5.90;;
4290;SDS011;2159;50.906;7.152;2023-04-06T07:30:06;9.23;;;5.70;;
4290;SDS011;2159;50.906;7.152;2023-04-06T07:32:34;7.00;;;5.83;;
4290;SDS011;2159;50.906;7.152;2023-04-06T07:35:02;8.80;;;5.97;;
4290;SDS011;2159;50.906;7.152;2023-04-06T07:37:31;8.27;;;5.37;;
4290;SDS011;2159;50.906;7.152;2023-04-06T07:39:59;9.57;;;6.53;;
4290;SDS011;2159;50.906;7.152;2023-04-06T07:42:26;9.33;;;6.03;;
4290;SDS011;2159;50.906;7.152;2023-04-06T07:44:54;13.13;;;6.60;;
4290;SDS011;2159;50.906;7.152;2023-04-06T07:47:22;8.10;;;6.17;;
4290;SDS011;2159;50.906;7.152;2023-04-06T07:49:50;7.80;;;6.20;;
4290;SDS011;2159;50.906;7.152;2023-04-06T07:52:17;10.77;;;6.47;;
4290;SDS011;2159;50.906;7.152;2023-04-06T07:54:46;8.83;;;5.87;;
4290;SDS011;2159;50.906;7.152;2023-04-06T07:57:15;9.27;;;5.83;;
4290;SDS011;2159;50.906;7.152;2023-04-06T07:59:43;8.10;;;5.90;;
4290;SDS011;2159;50.906;7.152;2023-04-06T08:02:11;10.07;;;6.40;;
4290;SDS011;2159;50.906;7.152;2023-04-06T08:04:38;8.03;;;6.40;;
4290;SDS011;2159;50.906;7.152;2023-04-06T08:07:08;11.20;;;6.37;;
4290;SDS011;2159;50.906;7.152;2023-04-06T08:09:36;8.50;;;6.37;;
4290;SDS011;2159;50.906;7.152;2023-04-06T08:12:05;8.40;;;5.77;;
4290;SDS011;2159;50.906;7.152;2023-04-06T08:14:33;10.67;;;6.50;;
4290;SDS011;2159;50.906;7.152;2023-04-06T08:17:01;9.73;;;6.90;;
4290;SDS011;2159;50.906;7.152;2023-04-06T08:19:31;9.37;;;6.67;;
4290;SDS011;2159;50.906;7.152;2023-04-06T08:21:59;7.93;;;6.20;;
4290;SDS011;2159;50.906;7.152;2023-04-06T08:24:26;39.00;;;7.70;;
4290;SDS011;2159;50.906;7.152;2023-04-06T08:26:54;13.97;;;6.63;;
4290;SDS011;2159;50.906;7.152;2023-04-06T08:29:23;10.03;;;6.70;;
4290;SDS011;2159;50.906;7.152;2023-04-06T08:31:50;13.63;;;7.10;;
4290;SDS011;2159;50.906;7.152;2023-04-06T08:34:18;8.90;;;6.37;;
4290;SDS011;2159;50.906;7.152;2023-04-06T08:36:46;12.97;;;6.77;;
4290;SDS011;2159;50.906;7.152;2023-04-06T08:39:13;17.00;;;7.20;;
4290;SDS011;2159;50.906;7.152;2023-04-06T08:41:41;10.47;;;6.90;;
4290;SDS011;2159;50.906;7.152;2023-04-06T08:44:09;29.07;;;7.20;;
4290;SDS011;2159;50.906;7.152;2023-04-06T08:46:38;12.53;;;7.20;;
4290;SDS011;2159;50.906;7.152;2023-04-06T08:49:05;9.90;;;6.93;;
4290;SDS011;2159;50.906;7.152;2023-04-06T08:51:36;12.00;;;7.17;;
4290;SDS011;2159;50.906;7.152;2023-04-06T08:54:04;11.07;;;7.23;;
4290;SDS011;2159;50.906;7.152;2023-04-06T08:56:32;12.47;;;6.70;;
4290;SDS011;2159;50.906;7.152;2023-04-06T08:59:00;10.07;;;6.77;;
4290;SDS011;2159;50.906;7.152;2023-04-06T09:01:30;10.13;;;6.47;;
4290;SDS011;2159;50.906;7.152;2023-04-06T09:03:59;14.17;;;7.47;;
4290;SDS011;2159;50.906;7.152;2023-04-06T09:06:29;11.10;;;6.90;;
4290;SDS011;2159;50.906;7.152;2023-04-06T09:08:57;13.90;;;7.17;;
4290;SDS011;2159;50.906;7.152;2023-04-06T09:11:24;11.70;;;6.90;;
4290;SDS011;2159;50.906;7.152;2023-04-06T09:13:53;13.60;;;7.10;;
4290;SDS011;2159;50.906;7.152;2023-04-06T09:16:21;13.03;;;7.20;;
4290;SDS011;2159;50.906;7.152;2023-04-06T09:18:49;11.97;;;7.37;;
4290;SDS011;2159;50.906;7.152;2023-04-06T09:21:18;16.50;;;7.20;;
4290;SDS011;2159;50.906;7.152;2023-04-06T09:23:57;11.97;;;7.53;;
4290;SDS011;2159;50.906;7.152;2023-04-06T09:26:25;11.63;;;6.83;;
4290;SDS011;2159;50.906;7.152;2023-04-06T09:28:53;11.20;;;7.20;;
4290;SDS011;2159;50.906;7.152;2023-04-06T09:31:21;11.03;;;7.50;;
4290;SDS011;2159;50.906;7.152;2023-04-06T09:33:49;10.53;;;7.40;;
4290;SDS011;2159;50.906;7.152;2023-04-06T09:36:19;12.90;;;7.43;;
4290;SDS011;2159;50.906;7.152;2023-04-06T09:38:53;11.53;;;6.93;;
4290;SDS011;2159;50.906;7.152;2023-04-06T09:41:22;12.93;;;7.60;;
4290;SDS011;2159;50.906;7.152;2023-04-06T09:43:50;19.63;;;7.67;;
4290;SDS011;2159;50.906;7.152;2023-04-06T09:46:18;12.60;;;7.27;;
4290;SDS011;2159;50.906;7.152;2023-04-06T09:48:48;10.43;;;7.33;;
4290;SDS011;2159;50.906;7.152;2023-04-06T09:51:16;11.73;;;7.47;;
4290;SDS011;2159;50.906;7.152;2023-04-06T09:53:47;15.93;;;8.00;;
4290;SDS011;2159;50.906;7.152;2023-04-06T09:56:17;12.67;;;7.50;;
4290;SDS011;2159;50.906;7.152;2023-04-06T09:58:48;10.17;;;6.53;;
4290;SDS011;2159;50.906;7.152;2023-04-06T10:01:17;10.40;;;6.77;;
4290;SDS011;2159;50.906;7.152;2023-04-06T10:03:50;10.50;;;6.60;;
4290;SDS011;2159;50.906;7.152;2023-04-06T10:06:21;16.30;;;8.23;;
4290;SDS011;2159;50.906;7.152;2023-04-06T10:08:51;14.53;;;8.67;;
4290;SDS011;2159;50.906;7.152;2023-04-06T10:11:20;17.37;;;7.70;;
4290;SDS011;2159;50.906;7.152;2023-04-06T10:13:48;12.03;;;8.13;;
4290;SDS011;2159;50.906;7.152;2023-04-06T10:16:16;11.97;;;8.17;;
4290;SDS011;2159;50.906;7.152;2023-04-06T10:18:49;11.17;;;7.53;;
4290;SDS011;2159;50.906;7.152;2023-04-06T10:21:19;11.80;;;7.07;;
4290;SDS011;2159;50.906;7.152;2023-04-06T10:23:48;14.60;;;8.43;;
4290;SDS011;2159;50.906;7.152;2023-04-06T10:26:19;14.77;;;7.83;;
4290;SDS011;2159;50.906;7.152;2023-04-06T10:28:47;12.50;;;8.30;;
4290;SDS011;2159;50.906;7.152;2023-04-06T10:31:23;15.70;;;8.43;;
4290;SDS011;2159;50.906;7.152;2023-04-06T10:33:54;19.60;;;10.00;;
4290;SDS011;2159;50.906;7.152;2023-04-06T10:36:22;12.33;;;7.47;;
4290;SDS011;2159;50.906;7.152;2023-04-06T10:38:53;14.57;;;8.10;;
4290;SDS011;2159;50.906;7.152;2023-04-06T10:41:22;10.53;;;7.30;;
4290;SDS011;2159;50.906;7.152;2023-04-06T10:43:54;15.97;;;8.33;;
4290;SDS011;2159;50.906;7.152;2023-04-06T10:46:24;11.90;;;7.60;;
4290;SDS011;2159;50.906;7.152;2023-04-06T10:48:52;14.20;;;7.30;;
4290;SDS011;2159;50.906;7.152;2023-04-06T10:51:24;14.63;;;7.33;;
4290;SDS011;2159;50.906;7.152;2023-04-06T10:53:53;12.73;;;7.27;;
4290;SDS011;2159;50.906;7.152;2023-04-06T10:56:23;12.03;;;7.27;;
4290;SDS011;2159;50.906;7.152;2023-04-06T10:58:52;13.23;;;7.97;;
4290;SDS011;2159;50.906;7.152;2023-04-06T11:01:22;13.23;;;7.97;;
4290;SDS011;2159;50.906;7.152;2023-04-06T11:03:51;12.20;;;8.37;;
4290;SDS011;2159;50.906;7.152;2023-04-06T11:06:19;15.70;;;8.20;;
4290;SDS011;2159;50.906;7.152;2023-04-06T11:08:47;16.20;;;8.90;;
4290;SDS011;2159;50.906;7.152;2023-04-06T11:11:15;15.93;;;8.70;;
4290;SDS011;2159;50.906;7.152;2023-04-06T11:13:46;12.97;;;8.23;;
4290;SDS011;2159;50.906;7.152;2023-04-06T11:16:14;11.40;;;7.90;;
4290;SDS011;2159;50.906;7.152;2023-04-06T11:18:52;11.27;;;8.00;;
4290;SDS011;2159;50.906;7.152;2023-04-06T11:21:30;15.30;;;8.33;;
4290;SDS011;2159;50.906;7.152;2023-04-06T11:24:03;16.73;;;8.87;;
4290;SDS011;2159;50.906;7.152;2023-04-06T11:26:31;14.23;;;8.80;;
4290;SDS011;2159;50.906;7.152;2023-04-06T11:29:00;18.37;;;8.87;;
4290;SDS011;2159;50.906;7.152;2023-04-06T11:31:27;18.93;;;9.60;;
4290;SDS011;2159;50.906;7.152;2023-04-06T11:33:56;16.30;;;8.43;;
4290;SDS011;2159;50.906;7.152;2023-04-06T11:36:23;17.77;;;9.07;;
4290;SDS011;2159;50.906;7.152;2023-04-06T11:38:55;16.57;;;8.97;;
4290;SDS011;2159;50.906;7.152;2023-04-06T11:41:23;16.57;;;8.60;;
4290;SDS011;2159;50.906;7.152;2023-04-06T11:43:54;15.90;;;9.00;;
4290;SDS011;2159;50.906;7.152;2023-04-06T11:46:23;15.87;;;8.67;;
4290;SDS011;2159;50.906;7.152;2023-04-06T11:48:53;14.27;;;8.53;;
4290;SDS011;2159;50.906;7.152;2023-04-06T11:51:25;14.30;;;8.60;;
4290;SDS011;2159;50.906;7.152;2023-04-06T11:53:52;15.40;;;8.87;;
4290;SDS011;2159;50.906;7.152;2023-04-06T11:56:23;15.60;;;8.87;;
4290;SDS011;2159;50.906;7.152;2023-04-06T11:58:52;17.67;;;9.07;;
4290;SDS011;2159;50.906;7.152;2023-04-06T12:01:19;13.63;;;8.27;;
4290;SDS011;2159;50.906;7.152;2023-04-06T12:03:48;13.67;;;8.40;;
4290;SDS011;2159;50.906;7.152;2023-04-06T12:06:17;16.10;;;8.40;;
4290;SDS011;2159;50.906;7.152;2023-04-06T12:08:45;12.57;;;8.33;;
4290;SDS011;2159;50.906;7.152;2023-04-06T12:11:13;15.17;;;8.40;;
4290;SDS011;2159;50.906;7.152;2023-04-06T12:13:41;12.10;;;7.40;;
4290;SDS011;2159;50.906;7.152;2023-04-06T12:16:08;16.60;;;8.60;;
4290;SDS011;2159;50.906;7.152;2023-04-06T12:18:36;12.87;;;8.40;;
4290;SDS011;2159;50.906;7.152;2023-04-06T12:21:05;15.60;;;8.70;;
4290;SDS011;2159;50.906;7.152;2023-04-06T12:23:32;12.60;;;7.80;;
4290;SDS011;2159;50.906;7.152;2023-04-06T12:26:00;13.93;;;8.40;;
4290;SDS011;2159;50.906;7.152;2023-04-06T12:28:28;13.73;;;8.00;;
4290;SDS011;2159;50.906;7.152;2023-04-06T12:30:55;16.03;;;8.47;;
4290;SDS011;2159;50.906;7.152;2023-04-06T12:33:23;13.83;;;8.07;;
4290;SDS011;2159;50.906;7.152;2023-04-06T12:35:51;16.20;;;8.20;;
4290;SDS011;2159;50.906;7.152;2023-04-06T12:38:20;10.90;;;7.53;;
4290;SDS011;2159;50.906;7.152;2023-04-06T12:40:47;10.57;;;7.23;;
4290;SDS011;2159;50.906;7.152;2023-04-06T12:43:15;10.50;;;7.60;;
4290;SDS011;2159;50.906;7.152;2023-04-06T12:45:42;10.37;;;6.53;;
4290;SDS011;2159;50.906;7.152;2023-04-06T12:48:10;12.53;;;7.50;;
4290;SDS011;2159;50.906;7.152;2023-04-06T12:50:38;12.10;;;7.93;;
4290;SDS011;2159;50.906;7.152;2023-04-06T12:53:05;11.27;;;6.97;;
4290;SDS011;2159;50.906;7.152;2023-04-06T12:55:34;10.83;;;7.23;;
4290;SDS011;2159;50.906;7.152;2023-04-06T12:58:02;9.97;;;6.53;;
4290;SDS011;2159;50.906;7.152;2023-04-06T13:00:30;11.10;;;6.80;;
4290;SDS011;2159;50.906;7.152;2023-04-06T13:02:58;8.87;;;6.57;;
4290;SDS011;2159;50.906;7.152;2023-04-06T13:05:25;11.93;;;7.00;;
4290;SDS011;2159;50.906;7.152;2023-04-06T13:07:56;10.43;;;7.10;;
4290;SDS011;2159;50.906;7.152;2023-04-06T13:10:23;12.70;;;6.40;;
4290;SDS011;2159;50.906;7.152;2023-04-06T13:12:53;9.40;;;6.90;;
4290;SDS011;2159;50.906;7.152;2023-04-06T13:15:21;12.00;;;6.97;;
4290;SDS011;2159;50.906;7.152;2023-04-06T13:17:48;10.40;;;6.77;;
4290;SDS011;2159;50.906;7.152;2023-04-06T13:20:16;11.67;;;6.90;;
4290;SDS011;2159;50.906;7.152;2023-04-06T13:22:44;14.77;;;6.47;;
4290;SDS011;2159;50.906;7.152;2023-04-06T13:25:12;9.57;;;6.23;;
4290;SDS011;2159;50.906;7.152;2023-04-06T13:27:39;9.97;;;6.70;;
4290;SDS011;2159;50.906;7.152;2023-04-06T13:30:09;10.90;;;6.80;;
4290;SDS011;2159;50.906;7.152;2023-04-06T13:32:37;10.23;;;6.57;;
4290;SDS011;2159;50.906;7.152;2023-04-06T13:35:05;14.40;;;6.60;;
4290;SDS011;2159;50.906;7.152;2023-04-06T13:37:33;10.07;;;6.10;;
4290;SDS011;2159;50.906;7.152;2023-04-06T13:40:01;9.00;;;6.83;;
4290;SDS011;2159;50.906;7.152;2023-04-06T13:42:29;11.53;;;6.47;;
4290;SDS011;2159;50.906;7.152;2023-04-06T13:44:56;10.30;;;7.23;;
4290;SDS011;2159;50.906;7.152;2023-04-06T13:47:25;9.77;;;7.40;;
4290;SDS011;2159;50.906;7.152;2023-04-06T13:49:53;9.63;;;6.57;;
4290;SDS011;2159;50.906;7.152;2023-04-06T13:52:21;8.53;;;6.33;;
4290;SDS011;2159;50.906;7.152;2023-04-06T13:54:49;8.37;;;5.63;;
4290;SDS011;2159;50.906;7.152;2023-04-06T13:57:16;8.63;;;6.17;;
4290;SDS011;2159;50.906;7.152;2023-04-06T13:59:44;9.60;;;6.17;;
4290;SDS011;2159;50.906;7.152;2023-04-06T14:02:12;10.83;;;6.37;;
4290;SDS011;2159;50.906;7.152;2023-04-06T14:04:41;7.20;;;5.23;;
4290;SDS011;2159;50.906;7.152;2023-04-06T14:07:09;6.03;;;5.10;;
4290;SDS011;2159;50.906;7.152;2023-04-06T14:09:36;8.13;;;5.90;;
4290;SDS011;2159;50.906;7.152;2023-04-06T14:12:04;8.20;;;5.47;;
4290;SDS011;2159;50.906;7.152;2023-04-06T14:14:32;10.20;;;5.50;;
4290;SDS011;2159;50.906;7.152;2023-04-06T14:16:59;9.43;;;5.77;;
4290;SDS011;2159;50.906;7.152;2023-04-06T14:19:27;11.00;;;6.00;;
4290;SDS011;2159;50.906;7.152;2023-04-06T14:21:56;11.20;;;6.40;;
4290;SDS011;2159;50.906;7.152;2023-04-06T14:24:23;8.27;;;5.97;;
4290;SDS011;2159;50.906;7.152;2023-04-06T14:26:51;8.47;;;6.07;;
4290;SDS011;2159;50.906;7.152;2023-04-06T14:29:19;12.60;;;6.50;;
4290;SDS011;2159;50.906;7.152;2023-04-06T14:31:46;9.00;;;6.27;;
4290;SDS011;2159;50.906;7.152;2023-04-06T14:34:14;9.03;;;6.43;;
4290;SDS011;2159;50.906;7.152;2023-04-06T14:36:42;7.73;;;6.30;;
4290;SDS011;2159;50.906;7.152;2023-04-06T14:39:12;10.17;;;6.80;;
4290;SDS011;2159;50.906;7.152;2023-04-06T14:41:39;10.13;;;5.90;;
4290;SDS011;2159;50.906;7.152;2023-04-06T14:44:06;9.30;;;6.30;;
4290;SDS011;2159;50.906;7.152;2023-04-06T14:46:38;7.73;;;5.80;;
4290;SDS011;2159;50.906;7.152;2023-04-06T14:49:05;9.57;;;5.83;;
4290;SDS011;2159;50.906;7.152;2023-04-06T14:51:34;11.10;;;6.43;;
4290;SDS011;2159;50.906;7.152;2023-04-06T14:54:01;8.80;;;6.53;;
4290;SDS011;2159;50.906;7.152;2023-04-06T14:56:31;11.30;;;6.90;;
4290;SDS011;2159;50.906;7.152;2023-04-06T14:58:58;11.47;;;7.17;;
4290;SDS011;2159;50.906;7.152;2023-04-06T15:01:27;9.90;;;6.60;;
4290;SDS011;2159;50.906;7.152;2023-04-06T15:03:55;9.67;;;6.53;;
4290;SDS011;2159;50.906;7.152;2023-04-06T15:06:22;8.97;;;6.60;;
4290;SDS011;2159;50.906;7.152;2023-04-06T15:08:50;13.07;;;6.70;;
4290;SDS011;2159;50.906;7.152;2023-04-06T15:11:17;11.57;;;7.50;;
4290;SDS011;2159;50.906;7.152;2023-04-06T15:13:46;9.23;;;6.40;;
4290;SDS011;2159;50.906;7.152;2023-04-06T15:16:13;11.13;;;7.40;;